Flight Track Log - Related Links

Times and Time Zones

All times are in EDT time to prevent confusion due to time zone crossing. See the RPA3457 flight status page for this flight to view local times or setup timezone preferences in your user account.

Time Position Orientation Groundspeed Altitude Reporting Facility
EDT Latitude Longitude Course Direction KTS MPH feet Rate Location/Type
Mon 07:52:36 AM 44.4406 -73.1350 195° South 168 193 2,200  Level Boston Center
Mon 07:53:36 AM 44.3800 -73.1517 191° South 200 230 4,400 2,950 Climbing Boston Center
Mon 07:54:00 AM 44.1768 -73.2587 195° South  Level FlightAware Approximate
Mon 07:54:36 AM 44.3047 -73.1828 196° South 264 304 8,100  Level Boston Center
Mon 07:55:00 AM 44.0796 -73.2952 195° South  Level FlightAware Approximate
Mon 07:55:36 AM 44.2192 -73.1961 186° South 297 342 10,800  Level Boston Center
Mon 07:56:00 AM 43.9818 -73.3283 194° South  Level FlightAware Approximate
Mon 07:56:36 AM 44.1192 -73.2092 185° South 344 396 13,400  Level Boston Center
Mon 07:57:00 AM 43.8842 -73.3622 195° South  Level FlightAware Approximate
Mon 07:57:36 AM 44.0128 -73.2253 186° South 373 429 16,200  Level Boston Center
Mon 07:58:36 AM 43.9064 -73.2356 184° South 390 449 18,700 2,500 Climbing Boston Center
Mon 07:59:36 AM 43.7919 -73.2167 173° South 401 461 21,200 2,300 Climbing Boston Center
Mon 08:00:36 AM 43.6756 -73.1922 171° South 417 480 23,300 2,150 Climbing Boston Center
Mon 08:01:36 AM 43.5525 -73.1819 177° South 435 501 25,500 2,050 Climbing Boston Center
Mon 08:02:36 AM 43.4317 -73.2033 187° South 435 501 27,400 1,250 Climbing Boston Center
Mon 08:03:36 AM 43.3208 -73.2250 188° South 447 514 28,000 300 Climbing Boston Center
Mon 08:04:36 AM 43.1894 -73.2489 188° South 466 536 28,000  Level Boston Center
Mon 08:05:36 AM 43.0581 -73.2728 188° South 480 552 28,000  Level Boston Center
Mon 08:06:36 AM 42.9267 -73.2964 187° South 480 552 28,000  Level Boston Center
Mon 08:07:36 AM 42.7950 -73.3228 188° South 485 558 28,000  Level Boston Center
Mon 08:08:36 AM 42.6678 -73.3492 189° South 485 558 28,000  Level Boston Center
Mon 08:09:36 AM 42.5464 -73.4150 202° Southwest 471 542 28,000  Level Boston Center
Mon 08:10:36 AM 42.4289 -73.4864 204° Southwest 465 535 28,000  Level Boston Center
Mon 08:11:36 AM 42.3011 -73.5517 201° Southwest 457 526 28,000  Level Boston Center
Mon 08:12:36 AM 42.1881 -73.6169 203° Southwest 451 519 28,000  Level Boston Center
Mon 08:13:36 AM 42.0706 -73.6847 203° Southwest 451 519 28,000  Level Boston Center
Mon 08:14:36 AM 41.9508 -73.7575 204° Southwest 460 529 28,000  Level Boston Center
Mon 08:15:36 AM 41.8356 -73.8222 203° Southwest 465 535 28,000  Level Boston Center
Mon 08:16:36 AM 41.7222 -73.8864 203° Southwest 460 529 28,000  Level Boston Center
Mon 08:18:43 AM 41.4897 -74.0142 202° Southwest 452 520 28,000  Level New York Center
Mon 08:19:43 AM 41.3714 -74.0831 204° Southwest 458 527 28,000  Level New York Center
Mon 08:20:42 AM 41.2508 -74.1489 202° Southwest 463 533 28,000  Level New York Center
Mon 08:21:44 AM 41.1175 -74.2164 201° Southwest 463 533 28,000  Level New York Center
Mon 08:22:42 AM 41.0072 -74.2822 204° Southwest 451 519 28,000  Level New York Center
Mon 08:23:42 AM 40.8950 -74.3425 202° Southwest 446 513 28,000  Level New York Center
Mon 08:24:42 AM 40.7867 -74.4108 206° Southwest 446 513 28,000  Level New York Center
Mon 08:25:43 AM 40.7167 -74.5247 231° Southwest 418 481 28,000 -50 Level New York Center
Mon 08:26:41 AM 40.6483 -74.6358 231° Southwest 401 461 27,900 -756 Descending New York Center
Mon 08:27:42 AM 40.5800 -74.7494 232° Southwest 406 467 26,500 -1,377 Descending New York Center
Mon 08:28:43 AM 40.5056 -74.8544 227° Southwest 400 460 25,100 -1,884 Descending New York Center
Mon 08:29:43 AM 40.4356 -74.9511 226° Southwest 390 449 22,700 -2,479 Descending New York Center
Mon 08:30:44 AM 40.3675 -75.0450 226° Southwest 379 436 20,100 -1,361 Descending New York Center
Mon 08:31:42 AM 40.3014 -75.1389 227° Southwest 366 421 20,000 -50 Descending New York Center
Mon 08:32:43 AM 40.2333 -75.2353 227° Southwest 360 414 20,000  Level New York Center
Mon 08:33:42 AM 40.1692 -75.3289 228° Southwest 360 414 20,000  Level New York Center
Mon 08:34:43 AM 40.1011 -75.4222 226° Southwest 360 414 20,000  Level New York Center
Mon 08:35:41 AM 40.0325 -75.5178 227° Southwest 360 414 20,000  Level New York Center
Mon 08:36:42 AM 39.9661 -75.6136 228° Southwest 360 414 20,000  Level New York Center
Mon 08:37:44 AM 39.9058 -75.7122 231° Southwest 360 414 20,000  Level New York Center
Mon 08:38:42 AM 39.8411 -75.8131 230° Southwest 360 414 20,000  Level New York Center
Mon 08:39:43 AM 39.7783 -75.9139 231° Southwest 360 414 20,000 -702 Level New York Center
Mon 08:41:50 AM 39.6500 -76.1167 231° Southwest 342 394 17,800 -1,359 Descending Potomac TRACON
Mon 08:42:44 AM 39.5833 -76.2000 224° Southwest 336 387 15,900 -1,895 Descending Potomac TRACON
Mon 08:43:44 AM 39.5333 -76.3000 237° Southwest 326 375 14,200 -1,714 Descending Potomac TRACON
Mon 08:44:50 AM 39.4667 -76.3833 224° Southwest 319 367 12,300 -1,650 Descending Potomac TRACON
Mon 08:45:44 AM 39.4000 -76.4500 218° Southwest 321 369 10,900 -1,211 Descending Potomac TRACON
Mon 08:46:44 AM 39.3333 -76.5167 218° Southwest 305 351 10,000 -450 Descending Potomac TRACON
Mon 08:47:44 AM 39.2667 -76.5833 218° Southwest 287 330 10,000  Level Potomac TRACON
Mon 08:48:39 AM 39.2167 -76.6333 218° Southwest 288 331 10,000  Level Potomac TRACON
Mon 08:49:39 AM 39.1500 -76.6833 210° Southwest 287 330 10,000 -50 Level Potomac TRACON
Mon 08:50:39 AM 39.0833 -76.7667 224° Southwest 284 327 9,900 -1,041 Descending Potomac TRACON
Mon 08:51:40 AM 39.0333 -76.8333 226° Southwest 277 319 7,900 -1,835 Descending Potomac TRACON
Mon 08:52:40 AM 38.9667 -76.9000 218° Southwest 269 310 6,200 -991 Descending Potomac TRACON
Mon 08:53:35 AM 38.9167 -76.9333 207° Southwest 235 270 6,000 -105 Descending Potomac TRACON
Mon 08:54:34 AM 38.8667 -76.9500 195° South 236 272 6,000 -150 Level Potomac TRACON
Mon 08:55:35 AM 38.8000 -76.9500 180° South 231 266 5,700 -574 Descending Potomac TRACON
Mon 08:56:29 AM 38.7333 -76.9333 169° South 215 247 4,900 -667 Descending Potomac TRACON
Mon 08:57:23 AM 38.7000 -76.9333 180° South 172 198 4,500 -470 Descending Potomac TRACON
Mon 08:58:24 AM 38.6500 -76.9333 180° South 178 205 4,000 -626 Descending Potomac TRACON
Mon 08:59:18 AM 38.6167 -76.9500 201° Southwest 179 206 3,300 -750 Descending Potomac TRACON
Mon 09:00:24 AM 38.6167 -77.0167 270° West 185 213 2,500 -381 Descending Potomac TRACON
Mon 09:01:24 AM 38.6667 -77.0333 345° North 169 194 2,500  Level Potomac TRACON
Mon 09:02:18 AM 38.7167 -77.0333 360° North 168 193 2,500  Level Potomac TRACON

Login

Don't have an account? Register now (free) for customized features, flight alerts, and more!